• Join FlightAware (Why Join?)
  • Login
  • US Flag 
06:02AM EDT


 

Airport Tracker/Info


-or-


 

Live Flight TrackerFlight Track Log ✈ N845NN ✈ 29-Apr-2012 ✈ KSNA - KDFW

Flight Track Log - Related Links

Times and Time Zones

All times are in EDT time to prevent confusion due to time zone crossing. See the N845NN flight status page for this flight to view local times or setup timezone preferences in your user account.

Time Position Orientation Groundspeed Altitude Reporting Facility
EDT Latitude Longitude Course Direction KTS MPH feet Rate Location/Type
03:34PM 33.6447 -117.8740 214° Southwest  Level FlightAware Approximate
03:35PM 33.5255 -117.8588 349° North  Level FlightAware Approximate
03:35PM 33.6333 -117.8833 187° South 183 211 2,000  Level Southern California TRACON
03:36PM 33.5633 -117.8936 116° Southeast 228 262 4,300 2,640 Climbing Los Angeles Center
03:37PM 33.5353 -117.8258 78° East 224 258 7,300 3,000 Climbing Los Angeles Center
03:38PM 33.5511 -117.7339 80° East 196 226 10,400 2,340 Climbing Los Angeles Center
03:39PM 33.5672 -117.6219 81° East 254 292 12,000 2,100 Climbing Los Angeles Center
03:40PM 33.5831 -117.5025 86° East 317 365 14,700 2,460 Climbing Los Angeles Center
03:41PM 33.5908 -117.3706 88° East 353 406 17,000 2,100 Climbing Los Angeles Center
03:42PM 33.5942 -117.2358 87° East 378 435 18,900 2,100 Climbing Los Angeles Center
03:43PM 33.5994 -117.0964 88° East 404 465 21,200 2,100 Climbing Los Angeles Center
03:44PM 33.6028 -116.9517 87° East 414 476 23,200 1,800 Climbing Los Angeles Center
03:45PM 33.6100 -116.8022 88° East 434 499 24,800 1,380 Climbing Los Angeles Center
03:46PM 33.6150 -116.6450 89° East 450 518 26,000 1,320 Climbing Los Angeles Center
03:47PM 33.6175 -116.4853 87° East 465 535 27,500 1,440 Climbing Los Angeles Center
03:48PM 33.6242 -116.3258 86° East 476 548 28,900 1,260 Climbing Los Angeles Center
03:49PM 33.6328 -116.1611 81° East 481 554 30,100 1,200 Climbing Los Angeles Center
03:50PM 33.6536 -115.9964 82° East 488 562 31,300 1,200 Climbing Los Angeles Center
03:51PM 33.6719 -115.8317 82° East 493 567 32,500 1,200 Climbing Los Angeles Center
03:52PM 33.6903 -115.6644 83° East 499 574 33,700 1,140 Climbing Los Angeles Center
03:53PM 33.7083 -115.4944 82° East 504 580 34,800 960 Climbing Los Angeles Center
03:54PM 33.7283 -115.3269 82° East 504 580 35,700 960 Climbing Los Angeles Center
03:55PM 33.7478 -115.1594 83° East 504 580 36,800 600 Climbing Los Angeles Center
03:56PM 33.7653 -114.9919 83° East 504 580 36,900 60 Climbing Los Angeles Center
03:57PM 33.7825 -114.8267 83° East 499 574 37,000  Climbing Los Angeles Center
03:58PM 33.7956 -114.6964 82° East 499 574 37,000  Level Los Angeles Center
03:59PM 33.8164 -114.5186 82° East 499 574 37,000  Level Los Angeles Center
04:00PM 33.8350 -114.3508 83° East 499 574 37,000  Level Los Angeles Center
04:02PM 33.8672 -114.0383 83° East 505 581 37,000  Level Albuquerque Center
04:03PM 33.8850 -113.8669 83° East 507 583 37,000  Level Albuquerque Center
04:04PM 33.9019 -113.6953 84° East 509 586 37,000  Level Albuquerque Center
04:05PM 33.9178 -113.5239 83° East 510 587 37,000  Level Albuquerque Center
04:06PM 33.9383 -113.3181 84° East 509 586 37,000  Level Albuquerque Center
04:07PM 33.9544 -113.1453 83° East 510 587 37,000  Level Albuquerque Center
04:08PM 33.9711 -112.9725 84° East 511 588 37,000  Level Albuquerque Center
04:09PM 33.9864 -112.7994 83° East 511 588 37,000  Level Albuquerque Center
04:10PM 34.0025 -112.6281 84° East 510 587 37,000  Level Albuquerque Center
04:11PM 34.0186 -112.4536 84° East 513 590 37,000  Level Albuquerque Center
04:12PM 34.0331 -112.2800 84° East 513 590 37,000  Level Albuquerque Center
04:14PM 34.0483 -112.1044 84° East 515 593 37,000  Level Albuquerque Center
04:15PM 34.0661 -111.8975 84° East 516 594 37,000  Level Albuquerque Center
04:16PM 34.0800 -111.7247 84° East 517 595 37,000  Level Albuquerque Center
04:17PM 34.0931 -111.5672 84° East 516 594 37,000  Level Albuquerque Center
04:18PM 34.1075 -111.3908 84° East 517 595 37,000  Level Albuquerque Center
04:19PM 34.1247 -111.1803 84° East 518 596 37,000  Level Albuquerque Center
04:20PM 34.1386 -111.0050 85° East 517 595 37,000  Level Albuquerque Center
04:21PM 34.1519 -110.8303 85° East 516 594 37,000  Level Albuquerque Center
04:22PM 34.1644 -110.6611 85° East 518 596 37,000  Level Albuquerque Center
04:23PM 34.1761 -110.4906 85° East 515 593 37,000  Level Albuquerque Center
04:24PM 34.1919 -110.2839 85° East 518 596 37,000  Level Albuquerque Center
04:25PM 34.2044 -110.1122 85° East 518 596 37,000  Level Albuquerque Center
04:26PM 34.2164 -109.9419 85° East 518 596 37,000  Level Albuquerque Center
04:27PM 34.2289 -109.7478 85° East 520 598 37,000  Level Albuquerque Center
04:28PM 34.2403 -109.5800 85° East 522 601 37,000  Level Albuquerque Center
04:29PM 34.2531 -109.3847 86° East 522 601 37,000  Level Albuquerque Center
04:30PM 34.2639 -109.2117 85° East 521 600 37,000  Level Albuquerque Center
04:31PM 34.2756 -109.0389 86° East 520 598 37,000  Level Albuquerque Center
04:32PM 34.2856 -108.8658 86° East 519 597 37,000  Level Albuquerque Center
04:33PM 34.2972 -108.6594 86° East 518 596 37,000  Level Albuquerque Center
04:34PM 34.3083 -108.4731 86° East 519 597 37,000  Level Albuquerque Center
04:35PM 34.3178 -108.2983 86° East 517 595 37,000  Level Albuquerque Center
04:36PM 34.3275 -108.1256 86° East 517 595 37,000  Level Albuquerque Center
04:37PM 34.3364 -107.9522 86° East 517 595 37,000  Level Albuquerque Center
04:38PM 34.3453 -107.7794 86° East 518 596 37,000  Level Albuquerque Center
04:40PM 34.3542 -107.6047 87° East 521 600 37,000  Level Albuquerque Center
04:41PM 34.3642 -107.3947 87° East 523 602 37,000  Level Albuquerque Center
04:42PM 34.3719 -107.2206 87° East 523 602 37,000  Level Albuquerque Center
04:43PM 34.3794 -107.0461 87° East 523 602 37,000  Level Albuquerque Center
04:44PM 34.3872 -106.8719 88° East 523 602 37,000  Level Albuquerque Center
04:45PM 34.3928 -106.6983 87° East 523 602 37,000  Level Albuquerque Center
04:46PM 34.4014 -106.4917 87° East 518 596 37,000  Level Albuquerque Center
04:47PM 34.4086 -106.3186 88° East 518 596 37,000  Level Albuquerque Center
04:48PM 34.4144 -106.1503 87° East 516 594 37,000  Level Albuquerque Center
04:49PM 34.4219 -105.9453 87° East 517 595 37,000  Level Albuquerque Center
04:50PM 34.4286 -105.7667 88° East 523 602 37,000  Level Albuquerque Center
04:51PM 34.4336 -105.5892 88° East 523 602 37,000  Level Albuquerque Center
04:52PM 34.4389 -105.4125 88° East 523 602 37,000  Level Albuquerque Center
04:53PM 34.4450 -105.2356 88° East 523 602 37,000  Level Albuquerque Center
04:54PM 34.4514 -105.0314 88° East 519 597 37,000  Level Albuquerque Center
04:55PM 34.4569 -104.8569 88° East 517 595 37,000  Level Albuquerque Center
04:56PM 34.4614 -104.6825 88° East 516 594 37,000  Level Albuquerque Center
04:57PM 34.4664 -104.5069 89° East 518 596 37,000  Level Albuquerque Center
04:58PM 34.4700 -104.3317 91° East 518 596 37,000  Level Albuquerque Center
04:59PM 34.4672 -104.1267 93° East 519 597 37,000  Level Albuquerque Center
05:00PM 34.4589 -103.9514 93° East 520 598 37,000  Level Albuquerque Center
05:01PM 34.4519 -103.7761 93° East 519 597 37,000  Level Albuquerque Center
05:02PM 34.4442 -103.6000 93° East 520 598 37,000  Level Albuquerque Center
05:03PM 34.4361 -103.4239 94° East 521 600 37,000  Level Albuquerque Center
05:04PM 34.4256 -103.2219 94° East 517 595 37,000  Level Albuquerque Center
05:06PM 34.4164 -103.0478 93° East 516 594 37,000  Level Albuquerque Center
05:07PM 34.4089 -102.8875 94° East 516 594 37,000  Level Albuquerque Center
05:08PM 34.3983 -102.6825 94° East 513 590 37,000  Level Albuquerque Center
05:08PM 34.3911 -102.5522 94° East 520 598 37,000  Level Fort Worth Center
05:09PM 34.3814 -102.3806 93° East 520 598 37,000  Level Fort Worth Center
05:10PM 34.3742 -102.1914 96° East 520 598 37,000  Level Fort Worth Center
05:11PM 34.3611 -102.0372 94° East 515 593 37,000  Level Fort Worth Center
05:12PM 34.3525 -101.8708 94° East 515 593 37,000  Level Fort Worth Center
05:13PM 34.3406 -101.6792 95° East 515 593 37,000  Level Fort Worth Center
05:14PM 34.3289 -101.5250 94° East 515 593 37,000  Level Fort Worth Center
05:15PM 34.3197 -101.3561 95° East 520 598 37,000  Level Fort Worth Center
05:16PM 34.3083 -101.1847 95° East 514 592 37,000  Level Fort Worth Center
05:17PM 34.2947 -101.0133 103° East 514 592 37,000  Level Fort Worth Center
05:18PM 34.2639 -100.8486 105° East 514 592 37,000  Level Fort Worth Center
05:19PM 34.2286 -100.6864 105° East 501 577 37,000  Level Fort Worth Center
05:20PM 34.1931 -100.5244 107° East 496 571 37,000 -60 Level Fort Worth Center
05:21PM 34.1531 -100.3675 105° East 496 571 36,900 -600 Descending Fort Worth Center
05:22PM 34.1169 -100.2081 105° East 496 571 35,900 -960 Descending Fort Worth Center
05:23PM 34.0808 -100.0489 106° East 496 571 35,000 -960 Descending Fort Worth Center
05:24PM 34.0425 -99.8850 105° East 496 571 34,000 -960 Descending Fort Worth Center
05:25PM 34.0019 -99.7083 107° East 501 577 33,100 -1,380 Descending Fort Worth Center
05:26PM 33.9611 -99.5444 105° East 501 577 31,300 -1,740 Descending Fort Worth Center
05:27PM 33.9242 -99.3808 107° East 501 577 29,700 -1,620 Descending Fort Worth Center
05:28PM 33.8828 -99.2200 108° East 501 577 28,100 -1,560 Descending Fort Worth Center
05:29PM 33.8450 -99.0839 107° East 501 577 26,600 -1,380 Descending Fort Worth Center
05:30PM 33.8072 -98.9333 110° East 478 550 25,400 -1,140 Descending Fort Worth Center
05:31PM 33.7611 -98.7775 109° East 453 521 24,400 -720 Descending Fort Worth Center
05:32PM 33.7206 -98.6397 113° Southeast 446 513 24,000 -240 Descending Fort Worth Center
05:33PM 33.6719 -98.5017 112° Southeast 440 506 24,000 -960 Level Fort Worth Center
05:34PM 33.6269 -98.3714 111° Southeast 434 499 22,100 -2,040 Descending Fort Worth Center
05:35PM 33.5861 -98.2439 113° Southeast 423 487 20,000 -2,040 Descending Fort Worth Center
05:36PM 33.5453 -98.1264 111° Southeast 415 478 18,100 -2,100 Descending Fort Worth Center
05:37PM 33.5019 -97.9939 112° Southeast 404 465 15,900 -2,100 Descending Fort Worth Center
05:38PM 33.4650 -97.8842 113° Southeast 393 452 14,000 -2,100 Descending Fort Worth Center
05:39PM 33.4214 -97.7594 112° Southeast 388 447 11,800 -1,800 Descending Fort Worth Center
05:40PM 33.3883 -97.6597 132° Southeast 362 417 10,400 -1,500 Descending Fort Worth Center
05:41PM 33.3322 -97.5850 135° Southeast 312 359 8,800 -1,440 Descending Fort Worth Center
05:42PM 33.2717 -97.5128 123° Southeast 284 327 7,600 -1,140 Descending Fort Worth Center
05:43PM 33.2383 -97.4506 92° East 261 300 6,600 -840 Descending Fort Worth Center
05:44PM 33.2361 -97.3614 114° Southeast 240 276 6,000 -780 Descending Fort Worth Center
05:45PM 33.2133 -97.2992 131° Southeast 224 258 5,100 -540 Descending Fort Worth Center
05:46PM 33.1694 -97.2397 131° Southeast 219 252 5,000 -180 Descending Fort Worth Center
05:47PM 33.1317 -97.1878 129° Southeast 224 258 4,800 -600 Descending Fort Worth Center
05:48PM 33.0897 -97.1258 132° Southeast 224 258 3,900 -900 Descending Fort Worth Center
05:49PM 33.0564 -97.0814 132° Southeast 212 244 3,000 -900 Descending Fort Worth Center